sensor_id;sensor_type;location;lat;lon;timestamp;P1;durP1;ratioP1;P2;durP2;ratioP2
31728;SDS011;18309;43.658;1.312;2023-02-15T00:01:37;13.27;;;4.80;;
31728;SDS011;18309;43.658;1.312;2023-02-15T00:04:03;18.58;;;5.25;;
31728;SDS011;18309;43.658;1.312;2023-02-15T00:06:29;16.80;;;5.15;;
31728;SDS011;18309;43.658;1.312;2023-02-15T00:08:55;11.40;;;4.20;;
31728;SDS011;18309;43.658;1.312;2023-02-15T00:11:21;11.40;;;4.93;;
31728;SDS011;18309;43.658;1.312;2023-02-15T00:16:48;19.05;;;5.95;;
31728;SDS011;18309;43.658;1.312;2023-02-15T00:19:16;21.65;;;6.82;;
31728;SDS011;18309;43.658;1.312;2023-02-15T00:21:42;16.63;;;6.15;;
31728;SDS011;18309;43.658;1.312;2023-02-15T00:24:09;15.35;;;5.32;;
31728;SDS011;18309;43.658;1.312;2023-02-15T00:26:40;20.50;;;6.18;;
31728;SDS011;18309;43.658;1.312;2023-02-15T00:29:06;12.00;;;5.30;;
31728;SDS011;18309;43.658;1.312;2023-02-15T00:31:33;17.95;;;6.75;;
31728;SDS011;18309;43.658;1.312;2023-02-15T00:36:29;15.88;;;6.65;;
31728;SDS011;18309;43.658;1.312;2023-02-15T00:38:55;15.73;;;5.18;;
31728;SDS011;18309;43.658;1.312;2023-02-15T00:41:21;13.98;;;5.78;;
31728;SDS011;18309;43.658;1.312;2023-02-15T00:43:47;19.05;;;5.75;;
31728;SDS011;18309;43.658;1.312;2023-02-15T00:46:13;12.13;;;4.90;;
31728;SDS011;18309;43.658;1.312;2023-02-15T00:48:38;12.32;;;5.10;;
31728;SDS011;18309;43.658;1.312;2023-02-15T00:51:04;9.30;;;4.32;;
31728;SDS011;18309;43.658;1.312;2023-02-15T00:53:30;12.88;;;4.72;;
31728;SDS011;18309;43.658;1.312;2023-02-15T00:55:56;20.95;;;5.22;;
31728;SDS011;18309;43.658;1.312;2023-02-15T00:58:22;17.58;;;5.30;;
31728;SDS011;18309;43.658;1.312;2023-02-15T01:00:49;12.98;;;4.60;;
31728;SDS011;18309;43.658;1.312;2023-02-15T01:03:15;11.93;;;5.38;;
31728;SDS011;18309;43.658;1.312;2023-02-15T01:05:42;20.48;;;6.10;;
31728;SDS011;18309;43.658;1.312;2023-02-15T01:08:08;14.68;;;5.70;;
31728;SDS011;18309;43.658;1.312;2023-02-15T01:10:34;15.50;;;5.80;;
31728;SDS011;18309;43.658;1.312;2023-02-15T01:13:00;17.70;;;6.18;;
31728;SDS011;18309;43.658;1.312;2023-02-15T01:15:27;16.35;;;5.68;;
31728;SDS011;18309;43.658;1.312;2023-02-15T01:17:53;20.90;;;4.55;;
31728;SDS011;18309;43.658;1.312;2023-02-15T01:20:21;17.35;;;5.05;;
31728;SDS011;18309;43.658;1.312;2023-02-15T01:22:49;15.93;;;4.53;;
31728;SDS011;18309;43.658;1.312;2023-02-15T01:25:16;10.68;;;4.53;;
31728;SDS011;18309;43.658;1.312;2023-02-15T01:27:42;16.10;;;5.03;;
31728;SDS011;18309;43.658;1.312;2023-02-15T01:30:08;10.55;;;4.53;;
31728;SDS011;18309;43.658;1.312;2023-02-15T01:32:34;14.65;;;4.47;;
31728;SDS011;18309;43.658;1.312;2023-02-15T01:35:00;16.25;;;4.45;;
31728;SDS011;18309;43.658;1.312;2023-02-15T01:37:26;17.02;;;5.07;;
31728;SDS011;18309;43.658;1.312;2023-02-15T01:39:52;18.05;;;5.47;;
31728;SDS011;18309;43.658;1.312;2023-02-15T01:42:24;18.00;;;5.30;;
31728;SDS011;18309;43.658;1.312;2023-02-15T01:44:58;13.88;;;5.47;;
31728;SDS011;18309;43.658;1.312;2023-02-15T01:50:10;12.73;;;4.55;;
31728;SDS011;18309;43.658;1.312;2023-02-15T01:55:23;13.20;;;4.93;;
31728;SDS011;18309;43.658;1.312;2023-02-15T01:57:53;18.98;;;4.80;;
31728;SDS011;18309;43.658;1.312;2023-02-15T02:00:20;13.30;;;5.32;;
31728;SDS011;18309;43.658;1.312;2023-02-15T02:02:46;15.93;;;4.95;;
31728;SDS011;18309;43.658;1.312;2023-02-15T02:05:14;19.50;;;5.47;;
31728;SDS011;18309;43.658;1.312;2023-02-15T02:07:43;12.38;;;5.07;;
31728;SDS011;18309;43.658;1.312;2023-02-15T02:10:12;17.67;;;4.97;;
31728;SDS011;18309;43.658;1.312;2023-02-15T02:12:40;15.98;;;5.20;;
31728;SDS011;18309;43.658;1.312;2023-02-15T02:15:09;18.77;;;4.95;;
31728;SDS011;18309;43.658;1.312;2023-02-15T02:20:43;16.25;;;6.47;;
31728;SDS011;18309;43.658;1.312;2023-02-15T02:27:09;19.30;;;5.68;;
31728;SDS011;18309;43.658;1.312;2023-02-15T02:34:16;16.00;;;4.93;;
31728;SDS011;18309;43.658;1.312;2023-02-15T02:39:39;10.85;;;5.00;;
31728;SDS011;18309;43.658;1.312;2023-02-15T02:45:09;13.52;;;5.40;;
31728;SDS011;18309;43.658;1.312;2023-02-15T02:47:50;21.27;;;5.60;;
31728;SDS011;18309;43.658;1.312;2023-02-15T02:50:25;14.18;;;5.18;;
31728;SDS011;18309;43.658;1.312;2023-02-15T02:52:54;19.45;;;5.43;;
31728;SDS011;18309;43.658;1.312;2023-02-15T02:58:02;14.73;;;5.68;;
31728;SDS011;18309;43.658;1.312;2023-02-15T03:00:37;19.65;;;6.00;;
31728;SDS011;18309;43.658;1.312;2023-02-15T03:03:30;18.70;;;6.40;;
31728;SDS011;18309;43.658;1.312;2023-02-15T03:06:00;19.52;;;5.60;;
31728;SDS011;18309;43.658;1.312;2023-02-15T03:08:34;15.75;;;5.75;;
31728;SDS011;18309;43.658;1.312;2023-02-15T03:11:03;15.35;;;6.05;;
31728;SDS011;18309;43.658;1.312;2023-02-15T03:13:29;20.02;;;6.68;;
31728;SDS011;18309;43.658;1.312;2023-02-15T03:15:56;17.63;;;6.05;;
31728;SDS011;18309;43.658;1.312;2023-02-15T03:18:46;14.43;;;6.20;;
31728;SDS011;18309;43.658;1.312;2023-02-15T03:21:19;14.23;;;6.40;;
31728;SDS011;18309;43.658;1.312;2023-02-15T03:23:52;19.30;;;7.70;;
31728;SDS011;18309;43.658;1.312;2023-02-15T03:26:22;14.57;;;7.05;;
31728;SDS011;18309;43.658;1.312;2023-02-15T03:28:50;18.20;;;7.97;;
31728;SDS011;18309;43.658;1.312;2023-02-15T03:31:20;14.82;;;7.60;;
31728;SDS011;18309;43.658;1.312;2023-02-15T03:33:59;16.27;;;8.07;;
31728;SDS011;18309;43.658;1.312;2023-02-15T03:36:44;16.25;;;7.55;;
31728;SDS011;18309;43.658;1.312;2023-02-15T03:42:03;18.27;;;7.93;;
31728;SDS011;18309;43.658;1.312;2023-02-15T03:47:35;17.75;;;8.10;;
31728;SDS011;18309;43.658;1.312;2023-02-15T03:50:05;15.60;;;8.25;;
31728;SDS011;18309;43.658;1.312;2023-02-15T03:52:53;17.42;;;7.78;;
31728;SDS011;18309;43.658;1.312;2023-02-15T03:55:21;15.77;;;8.90;;
31728;SDS011;18309;43.658;1.312;2023-02-15T03:57:47;21.00;;;9.35;;
31728;SDS011;18309;43.658;1.312;2023-02-15T04:00:31;17.45;;;9.10;;
31728;SDS011;18309;43.658;1.312;2023-02-15T04:03:27;15.75;;;9.13;;
31728;SDS011;18309;43.658;1.312;2023-02-15T04:05:53;15.45;;;9.18;;
31728;SDS011;18309;43.658;1.312;2023-02-15T04:08:19;21.60;;;9.20;;
31728;SDS011;18309;43.658;1.312;2023-02-15T04:11:05;17.80;;;9.18;;
31728;SDS011;18309;43.658;1.312;2023-02-15T04:13:31;17.02;;;8.85;;
31728;SDS011;18309;43.658;1.312;2023-02-15T04:15:58;15.52;;;8.43;;
31728;SDS011;18309;43.658;1.312;2023-02-15T04:18:40;16.05;;;9.20;;
31728;SDS011;18309;43.658;1.312;2023-02-15T04:21:27;20.17;;;9.20;;
31728;SDS011;18309;43.658;1.312;2023-02-15T04:24:13;17.15;;;8.35;;
31728;SDS011;18309;43.658;1.312;2023-02-15T04:26:58;19.80;;;7.95;;
31728;SDS011;18309;43.658;1.312;2023-02-15T04:29:26;17.75;;;8.75;;
31728;SDS011;18309;43.658;1.312;2023-02-15T04:31:53;18.45;;;8.55;;
31728;SDS011;18309;43.658;1.312;2023-02-15T04:34:20;19.88;;;8.05;;
31728;SDS011;18309;43.658;1.312;2023-02-15T04:36:46;15.85;;;8.88;;
31728;SDS011;18309;43.658;1.312;2023-02-15T04:39:12;16.83;;;8.55;;
31728;SDS011;18309;43.658;1.312;2023-02-15T04:41:39;18.88;;;9.20;;
31728;SDS011;18309;43.658;1.312;2023-02-15T04:44:05;19.40;;;9.32;;
31728;SDS011;18309;43.658;1.312;2023-02-15T04:46:30;16.95;;;8.15;;
31728;SDS011;18309;43.658;1.312;2023-02-15T04:48:56;17.10;;;8.00;;
31728;SDS011;18309;43.658;1.312;2023-02-15T04:51:22;17.63;;;8.70;;
31728;SDS011;18309;43.658;1.312;2023-02-15T04:53:48;14.45;;;8.82;;
31728;SDS011;18309;43.658;1.312;2023-02-15T04:56:14;18.95;;;8.52;;
31728;SDS011;18309;43.658;1.312;2023-02-15T04:58:40;16.23;;;7.95;;
31728;SDS011;18309;43.658;1.312;2023-02-15T05:01:08;17.92;;;8.38;;
31728;SDS011;18309;43.658;1.312;2023-02-15T05:03:34;17.13;;;8.07;;
31728;SDS011;18309;43.658;1.312;2023-02-15T05:06:01;19.85;;;9.48;;
31728;SDS011;18309;43.658;1.312;2023-02-15T05:08:27;17.48;;;8.48;;
31728;SDS011;18309;43.658;1.312;2023-02-15T05:10:53;13.85;;;8.23;;
31728;SDS011;18309;43.658;1.312;2023-02-15T05:13:19;15.50;;;8.90;;
31728;SDS011;18309;43.658;1.312;2023-02-15T05:15:49;21.55;;;8.50;;
31728;SDS011;18309;43.658;1.312;2023-02-15T05:18:15;18.10;;;9.03;;
31728;SDS011;18309;43.658;1.312;2023-02-15T05:20:42;16.70;;;7.85;;
31728;SDS011;18309;43.658;1.312;2023-02-15T05:23:09;17.17;;;8.32;;
31728;SDS011;18309;43.658;1.312;2023-02-15T05:25:35;17.33;;;8.52;;
31728;SDS011;18309;43.658;1.312;2023-02-15T05:28:20;19.42;;;9.68;;
31728;SDS011;18309;43.658;1.312;2023-02-15T05:30:51;20.73;;;9.48;;
31728;SDS011;18309;43.658;1.312;2023-02-15T05:33:27;22.02;;;8.88;;
31728;SDS011;18309;43.658;1.312;2023-02-15T05:35:53;15.13;;;8.55;;
31728;SDS011;18309;43.658;1.312;2023-02-15T05:38:19;19.98;;;9.05;;
31728;SDS011;18309;43.658;1.312;2023-02-15T05:40:44;22.48;;;9.15;;
31728;SDS011;18309;43.658;1.312;2023-02-15T05:43:10;18.40;;;9.65;;
31728;SDS011;18309;43.658;1.312;2023-02-15T05:45:36;25.92;;;10.07;;
31728;SDS011;18309;43.658;1.312;2023-02-15T05:48:02;16.38;;;8.95;;
31728;SDS011;18309;43.658;1.312;2023-02-15T05:50:27;20.48;;;10.38;;
31728;SDS011;18309;43.658;1.312;2023-02-15T05:52:53;21.55;;;10.50;;
31728;SDS011;18309;43.658;1.312;2023-02-15T05:55:19;21.92;;;10.77;;
31728;SDS011;18309;43.658;1.312;2023-02-15T05:57:45;27.27;;;11.18;;
31728;SDS011;18309;43.658;1.312;2023-02-15T06:00:11;22.40;;;11.35;;
31728;SDS011;18309;43.658;1.312;2023-02-15T06:02:38;23.30;;;11.50;;
31728;SDS011;18309;43.658;1.312;2023-02-15T06:05:05;20.00;;;11.38;;
31728;SDS011;18309;43.658;1.312;2023-02-15T06:07:31;27.17;;;10.73;;
31728;SDS011;18309;43.658;1.312;2023-02-15T06:09:57;20.65;;;10.70;;
31728;SDS011;18309;43.658;1.312;2023-02-15T06:12:23;20.13;;;11.05;;
31728;SDS011;18309;43.658;1.312;2023-02-15T06:14:49;22.73;;;10.88;;
31728;SDS011;18309;43.658;1.312;2023-02-15T06:17:15;23.83;;;11.82;;
31728;SDS011;18309;43.658;1.312;2023-02-15T06:19:41;27.08;;;11.18;;
31728;SDS011;18309;43.658;1.312;2023-02-15T06:22:08;23.65;;;12.20;;
31728;SDS011;18309;43.658;1.312;2023-02-15T06:24:33;23.55;;;11.60;;
31728;SDS011;18309;43.658;1.312;2023-02-15T06:26:59;26.20;;;14.95;;
31728;SDS011;18309;43.658;1.312;2023-02-15T06:29:25;27.08;;;14.30;;
31728;SDS011;18309;43.658;1.312;2023-02-15T06:31:50;26.00;;;13.85;;
31728;SDS011;18309;43.658;1.312;2023-02-15T06:34:16;30.30;;;15.50;;
31728;SDS011;18309;43.658;1.312;2023-02-15T06:36:42;30.15;;;14.45;;
31728;SDS011;18309;43.658;1.312;2023-02-15T06:39:08;30.77;;;14.00;;
31728;SDS011;18309;43.658;1.312;2023-02-15T06:41:33;30.10;;;13.40;;
31728;SDS011;18309;43.658;1.312;2023-02-15T06:43:59;26.85;;;13.55;;
31728;SDS011;18309;43.658;1.312;2023-02-15T06:46:25;24.52;;;11.80;;
31728;SDS011;18309;43.658;1.312;2023-02-15T06:48:51;21.50;;;11.90;;
31728;SDS011;18309;43.658;1.312;2023-02-15T06:51:16;22.55;;;12.07;;
31728;SDS011;18309;43.658;1.312;2023-02-15T06:53:42;27.25;;;11.98;;
31728;SDS011;18309;43.658;1.312;2023-02-15T06:56:08;21.80;;;11.57;;
31728;SDS011;18309;43.658;1.312;2023-02-15T06:58:36;28.17;;;12.70;;
31728;SDS011;18309;43.658;1.312;2023-02-15T07:01:02;23.98;;;12.43;;
31728;SDS011;18309;43.658;1.312;2023-02-15T07:03:28;26.48;;;12.93;;
31728;SDS011;18309;43.658;1.312;2023-02-15T07:05:55;23.92;;;12.32;;
31728;SDS011;18309;43.658;1.312;2023-02-15T07:11:37;28.58;;;17.52;;
31728;SDS011;18309;43.658;1.312;2023-02-15T07:14:57;41.35;;;19.55;;
31728;SDS011;18309;43.658;1.312;2023-02-15T07:17:23;39.92;;;18.23;;
31728;SDS011;18309;43.658;1.312;2023-02-15T07:19:53;34.63;;;16.50;;
31728;SDS011;18309;43.658;1.312;2023-02-15T07:22:19;31.88;;;15.18;;
31728;SDS011;18309;43.658;1.312;2023-02-15T07:24:45;30.65;;;14.60;;
31728;SDS011;18309;43.658;1.312;2023-02-15T07:27:10;28.33;;;12.90;;
31728;SDS011;18309;43.658;1.312;2023-02-15T07:29:36;27.05;;;13.77;;
31728;SDS011;18309;43.658;1.312;2023-02-15T07:32:02;29.88;;;15.48;;
31728;SDS011;18309;43.658;1.312;2023-02-15T07:34:27;32.17;;;15.18;;
31728;SDS011;18309;43.658;1.312;2023-02-15T07:36:53;33.55;;;15.75;;
31728;SDS011;18309;43.658;1.312;2023-02-15T07:39:19;33.70;;;14.77;;
31728;SDS011;18309;43.658;1.312;2023-02-15T07:41:45;33.47;;;14.63;;
31728;SDS011;18309;43.658;1.312;2023-02-15T07:44:11;35.95;;;16.75;;
31728;SDS011;18309;43.658;1.312;2023-02-15T07:46:38;32.58;;;16.50;;
31728;SDS011;18309;43.658;1.312;2023-02-15T07:49:04;37.88;;;17.85;;
31728;SDS011;18309;43.658;1.312;2023-02-15T07:51:30;32.05;;;17.20;;
31728;SDS011;18309;43.658;1.312;2023-02-15T07:53:56;37.13;;;18.60;;
31728;SDS011;18309;43.658;1.312;2023-02-15T07:56:21;38.45;;;19.60;;
31728;SDS011;18309;43.658;1.312;2023-02-15T07:58:47;39.00;;;20.02;;
31728;SDS011;18309;43.658;1.312;2023-02-15T08:01:16;48.65;;;21.23;;
31728;SDS011;18309;43.658;1.312;2023-02-15T08:03:44;44.13;;;21.13;;
31728;SDS011;18309;43.658;1.312;2023-02-15T08:06:10;40.25;;;20.05;;
31728;SDS011;18309;43.658;1.312;2023-02-15T08:08:38;38.85;;;20.63;;
31728;SDS011;18309;43.658;1.312;2023-02-15T08:13:50;38.58;;;18.80;;
31728;SDS011;18309;43.658;1.312;2023-02-15T08:19:19;40.33;;;20.33;;
31728;SDS011;18309;43.658;1.312;2023-02-15T08:21:53;42.17;;;18.15;;
31728;SDS011;18309;43.658;1.312;2023-02-15T08:24:22;62.22;;;24.33;;
31728;SDS011;18309;43.658;1.312;2023-02-15T08:26:49;42.35;;;20.02;;
31728;SDS011;18309;43.658;1.312;2023-02-15T08:29:17;51.28;;;23.83;;
31728;SDS011;18309;43.658;1.312;2023-02-15T08:31:45;47.97;;;21.27;;
31728;SDS011;18309;43.658;1.312;2023-02-15T08:34:12;41.78;;;20.05;;
31728;SDS011;18309;43.658;1.312;2023-02-15T08:36:41;42.75;;;18.80;;
31728;SDS011;18309;43.658;1.312;2023-02-15T08:39:07;39.45;;;19.38;;
31728;SDS011;18309;43.658;1.312;2023-02-15T08:41:36;35.65;;;17.67;;
31728;SDS011;18309;43.658;1.312;2023-02-15T08:44:04;39.08;;;17.15;;
31728;SDS011;18309;43.658;1.312;2023-02-15T08:46:32;42.13;;;16.25;;
31728;SDS011;18309;43.658;1.312;2023-02-15T08:49:03;25.48;;;14.20;;
31728;SDS011;18309;43.658;1.312;2023-02-15T08:51:30;27.05;;;13.27;;
31728;SDS011;18309;43.658;1.312;2023-02-15T08:53:59;26.70;;;12.40;;
31728;SDS011;18309;43.658;1.312;2023-02-15T08:56:27;19.92;;;9.98;;
31728;SDS011;18309;43.658;1.312;2023-02-15T08:58:55;25.60;;;8.27;;
31728;SDS011;18309;43.658;1.312;2023-02-15T09:01:22;20.73;;;8.00;;
31728;SDS011;18309;43.658;1.312;2023-02-15T09:03:51;27.40;;;9.40;;
31728;SDS011;18309;43.658;1.312;2023-02-15T09:06:20;26.73;;;8.05;;
31728;SDS011;18309;43.658;1.312;2023-02-15T09:08:47;20.75;;;7.15;;
31728;SDS011;18309;43.658;1.312;2023-02-15T09:13:53;28.17;;;7.15;;
31728;SDS011;18309;43.658;1.312;2023-02-15T09:16:21;21.42;;;7.03;;
31728;SDS011;18309;43.658;1.312;2023-02-15T09:18:48;19.55;;;6.88;;
31728;SDS011;18309;43.658;1.312;2023-02-15T09:21:15;17.33;;;6.63;;
31728;SDS011;18309;43.658;1.312;2023-02-15T09:23:44;19.73;;;6.43;;
31728;SDS011;18309;43.658;1.312;2023-02-15T09:26:12;20.77;;;6.25;;
31728;SDS011;18309;43.658;1.312;2023-02-15T09:28:41;25.65;;;6.70;;
31728;SDS011;18309;43.658;1.312;2023-02-15T09:31:17;18.08;;;6.18;;
31728;SDS011;18309;43.658;1.312;2023-02-15T09:33:45;12.75;;;5.38;;
31728;SDS011;18309;43.658;1.312;2023-02-15T09:36:20;16.10;;;6.20;;
31728;SDS011;18309;43.658;1.312;2023-02-15T09:38:52;13.65;;;5.47;;
31728;SDS011;18309;43.658;1.312;2023-02-15T10:03:53;12.57;;;5.63;;
31728;SDS011;18309;43.658;1.312;2023-02-15T10:09:42;12.20;;;5.22;;
31728;SDS011;18309;43.658;1.312;2023-02-15T10:15:03;12.73;;;4.95;;
31728;SDS011;18309;43.658;1.312;2023-02-15T10:47:38;13.80;;;5.03;;
31728;SDS011;18309;43.658;1.312;2023-02-15T10:50:36;13.93;;;4.38;;
31728;SDS011;18309;43.658;1.312;2023-02-15T10:53:32;21.52;;;6.70;;
31728;SDS011;18309;43.658;1.312;2023-02-15T10:58:56;15.55;;;4.93;;
31728;SDS011;18309;43.658;1.312;2023-02-15T11:01:33;15.90;;;5.53;;
31728;SDS011;18309;43.658;1.312;2023-02-15T11:07:12;17.40;;;4.97;;
31728;SDS011;18309;43.658;1.312;2023-02-15T11:09:52;17.27;;;5.50;;
31728;SDS011;18309;43.658;1.312;2023-02-15T11:12:43;13.93;;;4.43;;
31728;SDS011;18309;43.658;1.312;2023-02-15T11:17:51;12.63;;;5.28;;
31728;SDS011;18309;43.658;1.312;2023-02-15T11:20:24;10.35;;;4.40;;
31728;SDS011;18309;43.658;1.312;2023-02-15T11:22:51;14.30;;;4.88;;
31728;SDS011;18309;43.658;1.312;2023-02-15T11:25:25;17.50;;;4.70;;
31728;SDS011;18309;43.658;1.312;2023-02-15T11:27:55;9.77;;;4.72;;
31728;SDS011;18309;43.658;1.312;2023-02-15T11:30:23;10.45;;;4.30;;
31728;SDS011;18309;43.658;1.312;2023-02-15T11:32:58;18.63;;;5.00;;
31728;SDS011;18309;43.658;1.312;2023-02-15T11:35:37;9.10;;;4.65;;
31728;SDS011;18309;43.658;1.312;2023-02-15T11:40:47;19.55;;;6.32;;
31728;SDS011;18309;43.658;1.312;2023-02-15T11:43:20;24.35;;;4.35;;
31728;SDS011;18309;43.658;1.312;2023-02-15T11:46:05;11.10;;;4.10;;
31728;SDS011;18309;43.658;1.312;2023-02-15T11:48:32;13.80;;;4.35;;
31728;SDS011;18309;43.658;1.312;2023-02-15T11:50:59;11.13;;;4.13;;
31728;SDS011;18309;43.658;1.312;2023-02-15T11:53:28;10.50;;;3.80;;
31728;SDS011;18309;43.658;1.312;2023-02-15T11:55:57;10.73;;;4.00;;
31728;SDS011;18309;43.658;1.312;2023-02-15T11:58:30;13.50;;;3.97;;
31728;SDS011;18309;43.658;1.312;2023-02-15T12:01:10;9.23;;;3.97;;
31728;SDS011;18309;43.658;1.312;2023-02-15T12:04:06;10.13;;;3.97;;
31728;SDS011;18309;43.658;1.312;2023-02-15T12:14:57;11.10;;;3.42;;
31728;SDS011;18309;43.658;1.312;2023-02-15T12:17:26;9.85;;;3.70;;
31728;SDS011;18309;43.658;1.312;2023-02-15T12:19:57;8.90;;;3.80;;
31728;SDS011;18309;43.658;1.312;2023-02-15T12:22:34;15.20;;;4.32;;
31728;SDS011;18309;43.658;1.312;2023-02-15T12:25:04;14.23;;;4.15;;
31728;SDS011;18309;43.658;1.312;2023-02-15T12:27:46;7.85;;;3.13;;
31728;SDS011;18309;43.658;1.312;2023-02-15T12:33:54;9.05;;;2.88;;
31728;SDS011;18309;43.658;1.312;2023-02-15T12:36:18;8.80;;;3.88;;
31728;SDS011;18309;43.658;1.312;2023-02-15T12:41:44;11.00;;;3.75;;
31728;SDS011;18309;43.658;1.312;2023-02-15T12:44:19;12.02;;;3.17;;
31728;SDS011;18309;43.658;1.312;2023-02-15T12:47:04;12.30;;;4.00;;
31728;SDS011;18309;43.658;1.312;2023-02-15T12:49:33;6.53;;;3.08;;
31728;SDS011;18309;43.658;1.312;2023-02-15T12:52:04;11.75;;;3.05;;
31728;SDS011;18309;43.658;1.312;2023-02-15T12:54:47;10.70;;;2.92;;
31728;SDS011;18309;43.658;1.312;2023-02-15T12:57:15;9.90;;;3.08;;
31728;SDS011;18309;43.658;1.312;2023-02-15T12:59:53;9.60;;;3.45;;
31728;SDS011;18309;43.658;1.312;2023-02-15T13:02:43;11.32;;;4.05;;
31728;SDS011;18309;43.658;1.312;2023-02-15T13:05:33;6.90;;;2.53;;
31728;SDS011;18309;43.658;1.312;2023-02-15T13:08:01;8.45;;;3.30;;
31728;SDS011;18309;43.658;1.312;2023-02-15T13:10:35;9.68;;;3.13;;
31728;SDS011;18309;43.658;1.312;2023-02-15T13:13:10;9.95;;;3.20;;
31728;SDS011;18309;43.658;1.312;2023-02-15T13:15:44;7.90;;;3.03;;
31728;SDS011;18309;43.658;1.312;2023-02-15T13:18:16;7.32;;;3.30;;
31728;SDS011;18309;43.658;1.312;2023-02-15T13:23:17;10.77;;;2.80;;
31728;SDS011;18309;43.658;1.312;2023-02-15T13:25:53;5.15;;;2.95;;
31728;SDS011;18309;43.658;1.312;2023-02-15T13:28:25;6.15;;;2.90;;
31728;SDS011;18309;43.658;1.312;2023-02-15T13:31:17;10.15;;;3.25;;
31728;SDS011;18309;43.658;1.312;2023-02-15T13:33:55;7.85;;;3.00;;
31728;SDS011;18309;43.658;1.312;2023-02-15T13:42:21;10.02;;;2.80;;
31728;SDS011;18309;43.658;1.312;2023-02-15T13:47:45;16.48;;;3.30;;
31728;SDS011;18309;43.658;1.312;2023-02-15T13:55:53;7.00;;;2.72;;
31728;SDS011;18309;43.658;1.312;2023-02-15T14:01:20;4.40;;;2.38;;
31728;SDS011;18309;43.658;1.312;2023-02-15T14:06:48;9.88;;;3.55;;
31728;SDS011;18309;43.658;1.312;2023-02-15T14:15:26;7.60;;;2.38;;
31728;SDS011;18309;43.658;1.312;2023-02-15T14:18:04;8.45;;;2.63;;
31728;SDS011;18309;43.658;1.312;2023-02-15T14:26:45;7.25;;;2.28;;
31728;SDS011;18309;43.658;1.312;2023-02-15T14:29:38;7.72;;;2.30;;
31728;SDS011;18309;43.658;1.312;2023-02-15T14:32:21;10.20;;;2.95;;
31728;SDS011;18309;43.658;1.312;2023-02-15T14:34:54;6.10;;;2.70;;
31728;SDS011;18309;43.658;1.312;2023-02-15T14:49:37;9.43;;;2.88;;
31728;SDS011;18309;43.658;1.312;2023-02-15T14:57:31;5.63;;;2.40;;
31728;SDS011;18309;43.658;1.312;2023-02-15T15:02:13;7.43;;;2.60;;
31728;SDS011;18309;43.658;1.312;2023-02-15T15:07:36;11.27;;;3.03;;
31728;SDS011;18309;43.658;1.312;2023-02-15T15:12:52;7.00;;;2.22;;
31728;SDS011;18309;43.658;1.312;2023-02-15T15:18:00;8.27;;;2.80;;
31728;SDS011;18309;43.658;1.312;2023-02-15T15:20:41;6.05;;;2.40;;
31728;SDS011;18309;43.658;1.312;2023-02-15T15:25:42;6.50;;;2.30;;
31728;SDS011;18309;43.658;1.312;2023-02-15T15:42:19;8.38;;;2.42;;
31728;SDS011;18309;43.658;1.312;2023-02-15T15:50:21;5.97;;;2.30;;
31728;SDS011;18309;43.658;1.312;2023-02-15T15:52:52;5.82;;;2.70;;
31728;SDS011;18309;43.658;1.312;2023-02-15T15:55:21;8.70;;;2.28;;
31728;SDS011;18309;43.658;1.312;2023-02-15T15:57:52;6.72;;;2.55;;
31728;SDS011;18309;43.658;1.312;2023-02-15T16:03:15;7.90;;;2.28;;
31728;SDS011;18309;43.658;1.312;2023-02-15T16:05:41;6.90;;;2.70;;
31728;SDS011;18309;43.658;1.312;2023-02-15T16:08:07;5.95;;;2.60;;
31728;SDS011;18309;43.658;1.312;2023-02-15T16:10:32;7.13;;;2.63;;
31728;SDS011;18309;43.658;1.312;2023-02-15T16:12:59;6.93;;;2.47;;
31728;SDS011;18309;43.658;1.312;2023-02-15T16:15:33;7.32;;;2.53;;
31728;SDS011;18309;43.658;1.312;2023-02-15T16:18:02;5.53;;;3.28;;
31728;SDS011;18309;43.658;1.312;2023-02-15T16:20:32;8.27;;;2.83;;
31728;SDS011;18309;43.658;1.312;2023-02-15T16:23:09;7.88;;;2.63;;
31728;SDS011;18309;43.658;1.312;2023-02-15T16:29:00;9.27;;;2.95;;
31728;SDS011;18309;43.658;1.312;2023-02-15T16:31:27;9.25;;;2.55;;
31728;SDS011;18309;43.658;1.312;2023-02-15T16:33:53;6.43;;;3.08;;
31728;SDS011;18309;43.658;1.312;2023-02-15T16:36:24;11.70;;;3.75;;
31728;SDS011;18309;43.658;1.312;2023-02-15T16:41:27;20.45;;;3.17;;
31728;SDS011;18309;43.658;1.312;2023-02-15T16:43:54;12.13;;;3.45;;
31728;SDS011;18309;43.658;1.312;2023-02-15T16:48:52;10.95;;;3.85;;
31728;SDS011;18309;43.658;1.312;2023-02-15T16:51:27;8.50;;;3.30;;
31728;SDS011;18309;43.658;1.312;2023-02-15T16:53:55;12.63;;;3.40;;
31728;SDS011;18309;43.658;1.312;2023-02-15T16:56:27;6.68;;;2.88;;
31728;SDS011;18309;43.658;1.312;2023-02-15T16:58:56;8.45;;;2.97;;
31728;SDS011;18309;43.658;1.312;2023-02-15T17:01:27;9.50;;;3.95;;
31728;SDS011;18309;43.658;1.312;2023-02-15T17:09:26;9.13;;;4.00;;
31728;SDS011;18309;43.658;1.312;2023-02-15T17:11:51;9.63;;;3.90;;
31728;SDS011;18309;43.658;1.312;2023-02-15T17:14:21;8.20;;;3.78;;
31728;SDS011;18309;43.658;1.312;2023-02-15T17:16:53;13.55;;;4.63;;
31728;SDS011;18309;43.658;1.312;2023-02-15T17:19:25;16.45;;;4.47;;
31728;SDS011;18309;43.658;1.312;2023-02-15T17:24:31;15.25;;;6.32;;
31728;SDS011;18309;43.658;1.312;2023-02-15T17:27:01;13.77;;;6.35;;
31728;SDS011;18309;43.658;1.312;2023-02-15T17:29:37;12.45;;;6.00;;
31728;SDS011;18309;43.658;1.312;2023-02-15T17:32:17;15.45;;;7.50;;
31728;SDS011;18309;43.658;1.312;2023-02-15T17:34:49;17.67;;;8.52;;
31728;SDS011;18309;43.658;1.312;2023-02-15T17:39:54;19.55;;;7.85;;
31728;SDS011;18309;43.658;1.312;2023-02-15T17:42:20;14.27;;;8.20;;
31728;SDS011;18309;43.658;1.312;2023-02-15T17:44:48;19.02;;;7.60;;
31728;SDS011;18309;43.658;1.312;2023-02-15T17:47:15;16.08;;;7.30;;
31728;SDS011;18309;43.658;1.312;2023-02-15T17:49:44;17.60;;;6.72;;
31728;SDS011;18309;43.658;1.312;2023-02-15T17:52:13;16.80;;;8.20;;
31728;SDS011;18309;43.658;1.312;2023-02-15T17:54:39;12.40;;;6.55;;
31728;SDS011;18309;43.658;1.312;2023-02-15T17:57:24;13.07;;;6.07;;
31728;SDS011;18309;43.658;1.312;2023-02-15T17:59:53;11.55;;;5.97;;
31728;SDS011;18309;43.658;1.312;2023-02-15T18:02:38;13.60;;;6.00;;
31728;SDS011;18309;43.658;1.312;2023-02-15T18:05:22;10.95;;;4.65;;
31728;SDS011;18309;43.658;1.312;2023-02-15T18:08:11;8.80;;;4.63;;
31728;SDS011;18309;43.658;1.312;2023-02-15T18:10:57;11.27;;;5.70;;
31728;SDS011;18309;43.658;1.312;2023-02-15T18:13:41;16.13;;;5.40;;
31728;SDS011;18309;43.658;1.312;2023-02-15T18:16:19;11.65;;;5.15;;
31728;SDS011;18309;43.658;1.312;2023-02-15T18:18:46;8.27;;;4.68;;
31728;SDS011;18309;43.658;1.312;2023-02-15T18:21:12;12.60;;;4.85;;
31728;SDS011;18309;43.658;1.312;2023-02-15T18:23:38;13.35;;;6.15;;
31728;SDS011;18309;43.658;1.312;2023-02-15T18:26:05;12.15;;;6.85;;
31728;SDS011;18309;43.658;1.312;2023-02-15T18:28:31;20.25;;;6.82;;
31728;SDS011;18309;43.658;1.312;2023-02-15T18:30:58;15.93;;;6.93;;
31728;SDS011;18309;43.658;1.312;2023-02-15T18:33:30;16.60;;;6.95;;
31728;SDS011;18309;43.658;1.312;2023-02-15T18:36:00;15.05;;;7.85;;
31728;SDS011;18309;43.658;1.312;2023-02-15T18:38:30;14.82;;;7.93;;
31728;SDS011;18309;43.658;1.312;2023-02-15T18:40:56;12.85;;;6.90;;
31728;SDS011;18309;43.658;1.312;2023-02-15T18:43:22;15.80;;;7.13;;
31728;SDS011;18309;43.658;1.312;2023-02-15T18:45:48;19.42;;;7.70;;
31728;SDS011;18309;43.658;1.312;2023-02-15T18:48:13;14.32;;;7.65;;
31728;SDS011;18309;43.658;1.312;2023-02-15T18:50:39;15.32;;;7.47;;
31728;SDS011;18309;43.658;1.312;2023-02-15T18:53:06;17.20;;;7.10;;